Time;durP1;ratioP1;P1;durP2;ratioP2;P2;SDS_P1;SDS_P2;PMS_P1;PMS_P2;Temp;Humidity;BMP_temperature;BMP_pressure;BME280_temperature;BME280_humidity;BME280_pressure;Samples;Min_cycle;Max_cycle;Signal;HPM_P1;HPM_P2
2021/12/19 00:00:11;;;;;;;11.48;5.25;;;;;;;7.85;49.39;101313.78;4994597;28;20049;-78
2021/12/19 00:10:38;;;;;;;5.05;3.55;;;;;;;7.88;49.32;101302.06;4995242;28;20133;-76
2021/12/19 00:13:08;;;;;;;5.47;2.70;;;;;;;7.95;48.80;101295.25;4977993;28;20476;-78
2021/12/19 00:15:37;;;;;;;3.03;1.50;;;;;;;8.00;48.51;101301.47;4995029;28;20030;-76
2021/12/19 00:18:10;;;;;;;3.53;1.55;;;;;;;7.94;48.72;101299.97;4977831;28;20031;-76
2021/12/19 00:20:38;;;;;;;1.63;1.50;;;;;;;7.95;48.55;101300.78;4994107;28;20577;-76
2021/12/19 00:26:22;;;;;;;3.88;1.60;;;;;;;8.10;48.07;101289.28;5015458;28;20048;-76
2021/12/19 00:28:49;;;;;;;1.48;1.33;;;;;;;8.03;48.20;101269.50;4997933;28;20484;-76
2021/12/19 00:31:18;;;;;;;1.40;1.30;;;;;;;8.13;47.17;101275.59;5015424;28;20103;-78
2021/12/19 00:34:24;;;;;;;1.73;1.23;;;;;;;8.11;47.79;101264.03;5000666;28;20499;-77
2021/12/19 00:36:52;;;;;;;2.13;1.00;;;;;;;8.16;46.80;101257.53;5000405;28;20038;-77
2021/12/19 00:39:53;;;;;;;1.80;1.33;;;;;;;8.28;46.73;101249.41;5001308;28;20057;-77
2021/12/19 00:42:30;;;;;;;2.13;1.65;;;;;;;8.26;47.41;101235.06;5015648;28;20068;-77
2021/12/19 00:48:08;;;;;;;1.75;1.35;;;;;;;8.30;46.69;101233.25;4999908;28;20034;-77
2021/12/19 00:51:14;;;;;;;3.03;2.17;;;;;;;8.26;47.13;101215.63;5000136;28;20038;-77
2021/12/19 00:53:44;;;;;;;1.40;1.30;;;;;;;8.27;46.62;101210.91;5000321;28;20353;-76
2021/12/19 00:56:10;;;;;;;9.60;1.63;;;;;;;8.38;45.83;101220.59;4999866;28;20030;-76
2021/12/19 00:58:42;;;;;;;3.15;1.20;;;;;;;8.34;46.29;101237.00;5000076;28;20037;-76
2021/12/19 01:01:15;;;;;;;1.77;1.45;;;;;;;8.28;46.32;101218.91;5001053;28;20034;-76
2021/12/19 01:03:46;;;;;;;4.72;1.40;;;;;;;8.31;46.41;101232.13;5000053;28;20124;-77
2021/12/19 01:06:24;;;;;;;2.25;2.15;;;;;;;8.29;45.49;101214.16;5000097;28;20069;-76
2021/12/19 01:08:50;;;;;;;1.13;1.05;;;;;;;8.28;46.18;101221.66;5000551;28;20368;-76
2021/12/19 01:12:01;;;;;;;1.50;1.40;;;;;;;8.32;46.44;101228.22;5000959;28;20029;-77
2021/12/19 01:14:30;;;;;;;1.98;1.52;;;;;;;8.19;46.47;101206.16;5000119;28;20036;-76
2021/12/19 01:16:58;;;;;;;4.65;1.40;;;;;;;8.27;46.92;101214.50;5001666;28;20384;-76
2021/12/19 01:19:29;;;;;;;1.88;1.35;;;;;;;8.25;46.61;101216.75;5002253;28;20058;-77
2021/12/19 01:21:55;;;;;;;1.42;1.33;;;;;;;8.26;46.94;101215.63;5003011;28;20022;-76
2021/12/19 01:24:29;;;;;;;1.65;1.30;;;;;;;8.18;46.97;101210.88;5001946;28;20460;-77
2021/12/19 01:26:55;;;;;;;1.63;1.35;;;;;;;8.29;46.34;101203.88;5001105;28;20025;-77
2021/12/19 01:29:24;;;;;;;1.85;1.00;;;;;;;8.33;46.70;101206.84;5000851;28;20435;-77
2021/12/19 01:31:55;;;;;;;1.35;1.17;;;;;;;8.37;45.68;101208.69;5002373;28;20030;-76
2021/12/19 01:34:21;;;;;;;4.10;1.33;;;;;;;8.45;45.38;101211.78;5022796;28;20034;-77
2021/12/19 01:36:49;;;;;;;4.88;1.23;;;;;;;8.47;45.48;101207.56;5006051;28;20113;-77
2021/12/19 01:39:36;;;;;;;2.72;1.10;;;;;;;8.49;45.53;101210.00;5000789;28;20041;-76
2021/12/19 01:42:03;;;;;;;1.45;1.05;;;;;;;8.47;45.60;101201.16;4999917;28;20053;-76
2021/12/19 01:44:28;;;;;;;1.65;1.10;;;;;;;8.54;45.90;101202.34;5000430;28;20136;-76
2021/12/19 01:47:11;;;;;;;4.80;1.27;;;;;;;8.46;46.34;101191.22;5000405;28;20221;-76
2021/12/19 01:49:36;;;;;;;3.00;1.10;;;;;;;8.40;46.22;101185.84;4999191;28;20468;-76
2021/12/19 01:52:03;;;;;;;2.63;1.08;;;;;;;8.43;46.24;101172.47;4999428;28;20052;-77
2021/12/19 01:54:46;;;;;;;1.98;1.00;;;;;;;8.39;45.87;101156.47;5000107;28;20084;-77
2021/12/19 01:57:11;;;;;;;0.90;0.90;;;;;;;8.43;45.45;101150.28;4999340;28;20029;-76
2021/12/19 01:59:37;;;;;;;1.33;1.23;;;;;;;8.45;45.43;101139.69;4999174;28;20044;-77
2021/12/19 02:02:15;;;;;;;3.80;1.08;;;;;;;8.63;44.79;101133.81;4998417;28;20113;-77
2021/12/19 02:04:44;;;;;;;3.45;1.50;;;;;;;8.59;45.55;101143.13;4998887;28;20041;-76
2021/12/19 02:07:13;;;;;;;5.07;1.10;;;;;;;8.71;45.48;101146.03;4999180;28;20030;-76
2021/12/19 02:09:42;;;;;;;4.53;1.92;;;;;;;8.69;45.75;101170.53;5017454;28;20034;-76
2021/12/19 02:12:12;;;;;;;1.45;1.35;;;;;;;8.70;45.43;101165.81;4999503;28;20034;-77
2021/12/19 02:14:41;;;;;;;3.33;1.45;;;;;;;8.61;46.11;101163.00;5000108;28;20038;-77
2021/12/19 02:17:06;;;;;;;3.03;1.40;;;;;;;8.54;46.57;101163.50;5001095;28;20033;-76
2021/12/19 02:19:36;;;;;;;1.95;1.52;;;;;;;8.51;46.56;101171.66;5003567;28;20054;-76
2021/12/19 02:22:04;;;;;;;1.60;1.25;;;;;;;8.53;46.42;101183.25;5004573;28;20436;-77
2021/12/19 02:25:02;;;;;;;3.47;1.35;;;;;;;8.64;45.23;101182.59;5003957;28;20037;-77
2021/12/19 02:27:31;;;;;;;2.33;1.27;;;;;;;8.49;46.16;101173.94;5005127;28;20034;-77
2021/12/19 02:29:59;;;;;;;1.60;1.35;;;;;;;8.36;46.24;101184.88;5003865;28;20050;-77
2021/12/19 02:32:35;;;;;;;1.17;1.10;;;;;;;8.12;46.97;101179.72;5021393;28;20030;-77
2021/12/19 02:35:06;;;;;;;1.45;1.17;;;;;;;8.15;47.17;101186.59;5021199;28;20026;-77
2021/12/19 02:38:32;;;;;;;3.33;1.15;;;;;;;8.33;45.90;101187.44;5004306;28;20034;-77
2021/12/19 02:49:35;;;;;;;3.03;1.35;;;;;;;8.18;46.88;101174.84;5020281;28;20048;-76
2021/12/19 02:52:01;;;;;;;;;;;;;;;8.40;46.70;101196.94;5002855;28;20025;-76
2021/12/19 02:54:28;;;;;;;5.30;1.63;;;;;;;8.28;46.64;101190.34;5020447;28;19916;-76
2021/12/19 02:56:54;;;;;;;1.10;1.10;;;;;;;8.31;47.19;101176.66;5020261;28;20113;-76
2021/12/19 02:59:23;;;;;;;2.30;1.20;;;;;;;8.31;47.66;101179.44;5002525;28;20503;-76
2021/12/19 03:01:51;;;;;;;3.25;1.30;;;;;;;8.26;47.38;101168.50;5003345;28;20529;-76
2021/12/19 03:04:28;;;;;;;1.80;1.05;;;;;;;8.23;47.54;101158.06;5003731;28;20030;-76
2021/12/19 03:06:54;;;;;;;1.25;1.23;;;;;;;8.42;47.30;101171.66;5004163;28;20068;-76
2021/12/19 03:20:01;;;;;;;15.30;9.88;;;;;;;8.18;48.60;101183.16;5019172;28;20080;-76
2021/12/19 03:22:27;;;;;;;11.70;6.13;;;;;;;8.12;49.00;101184.44;5002029;28;20025;-76
2021/12/19 03:24:55;;;;;;;5.75;4.15;;;;;;;7.90;49.74;101187.31;5002350;28;20465;-76
2021/12/19 03:27:21;;;;;;;2.97;2.28;;;;;;;7.76;50.15;101185.44;5001939;28;20033;-76
2021/12/19 03:29:49;;;;;;;3.05;1.50;;;;;;;7.51;49.91;101155.69;5001353;28;20034;-76
2021/12/19 03:32:15;;;;;;;2.35;1.45;;;;;;;7.63;49.82;101172.53;5001891;28;20025;-76
2021/12/19 03:34:44;;;;;;;4.50;1.88;;;;;;;7.66;49.39;101182.16;5002201;28;20489;-76
2021/12/19 03:37:12;;;;;;;3.10;1.40;;;;;;;7.66;49.45;101190.44;5001556;28;20030;-76
2021/12/19 03:40:06;;;;;;;4.78;1.80;;;;;;;7.78;49.40;101190.69;5002306;28;20068;-76
2021/12/19 03:42:35;;;;;;;3.13;2.00;;;;;;;7.84;49.75;101184.69;5018424;28;20026;-76
2021/12/19 03:45:06;;;;;;;1.63;1.52;;;;;;;7.83;49.97;101199.69;5018204;28;20041;-76
2021/12/19 03:47:32;;;;;;;3.10;2.80;;;;;;;7.74;50.60;101196.03;5019179;28;20033;-76
2021/12/19 03:50:05;;;;;;;3.80;3.03;;;;;;;7.71;50.48;101193.91;5002627;28;20038;-76
2021/12/19 03:52:37;;;;;;;3.55;2.58;;;;;;;7.64;50.25;101185.25;5002140;28;20080;-76
2021/12/19 03:55:09;;;;;;;4.13;3.17;;;;;;;7.61;50.71;101185.88;5002346;28;20037;-76
2021/12/19 03:57:38;;;;;;;5.35;4.50;;;;;;;7.60;50.40;101176.75;5002220;28;20026;-76
2021/12/19 04:00:12;;;;;;;4.38;3.55;;;;;;;7.58;51.10;101178.22;5004043;28;20030;-77
2021/12/19 04:02:40;;;;;;;;;;;;;;;7.42;51.96;101177.00;5005484;28;20037;-77
2021/12/19 04:05:09;;;;;;;6.57;4.57;;;;;;;7.39;51.82;101172.06;4998571;28;19913;-76
2021/12/19 04:07:37;;;;;;;4.85;4.35;;;;;;;7.35;51.38;101175.50;5000947;28;20030;-76
2021/12/19 04:10:04;;;;;;;9.52;5.28;;;;;;;7.31;51.74;101174.47;5002975;28;20172;-76
2021/12/19 04:12:32;;;;;;;4.53;3.70;;;;;;;7.33;51.64;101168.63;5003390;28;20040;-76
2021/12/19 04:15:00;;;;;;;5.05;2.97;;;;;;;7.43;51.45;101168.34;5002606;28;20096;-76
2021/12/19 04:17:33;;;;;;;10.27;7.63;;;;;;;7.38;51.20;101170.44;5002725;28;20022;-76
2021/12/19 04:20:03;;;;;;;4.90;2.83;;;;;;;7.39;51.35;101172.88;5002429;28;20053;-76
2021/12/19 04:22:42;;;;;;;5.78;3.72;;;;;;;7.39;51.24;101167.34;5020684;28;20026;-76
2021/12/19 04:25:11;;;;;;;3.38;2.63;;;;;;;7.46;50.62;101184.34;5002631;28;20034;-76
2021/12/19 04:27:40;;;;;;;5.50;3.38;;;;;;;7.54;50.84;101179.97;5020447;28;20107;-76
2021/12/19 04:30:11;;;;;;;4.50;3.50;;;;;;;7.55;50.20;101170.53;5002869;28;20034;-77
2021/12/19 04:33:00;;;;;;;3.85;2.40;;;;;;;7.52;50.50;101160.09;5002806;28;20037;-76
2021/12/19 04:35:34;;;;;;;4.72;2.38;;;;;;;7.64;50.25;101168.63;5020424;28;20060;-76
2021/12/19 05:00:43;;;;;;;3.00;1.48;;;;;;;7.90;50.31;101171.50;5021433;28;20480;-76
2021/12/19 05:03:29;;;;;;;2.00;1.63;;;;;;;7.86;50.36;101171.31;5002195;28;20034;-76
2021/12/19 05:06:16;;;;;;;2.28;1.48;;;;;;;7.79;51.16;101176.50;5020767;28;20108;-76
2021/12/19 05:14:23;;;;;;;2.55;1.90;;;;;;;7.73;51.28;101176.97;5022105;28;20503;-76
2021/12/19 05:17:16;;;;;;;3.20;1.48;;;;;;;7.73;51.22;101177.78;5004147;28;20022;-77
2021/12/19 05:19:50;;;;;;;2.08;1.88;;;;;;;7.71;51.73;101180.06;5000150;28;20061;-76
2021/12/19 05:22:21;;;;;;;2.15;1.40;;;;;;;7.71;51.40;101174.50;5004193;28;20154;-76
2021/12/19 05:25:01;;;;;;;2.08;1.60;;;;;;;7.67;51.55;101175.47;5003571;28;20038;-77
2021/12/19 05:27:55;;;;;;;3.72;1.40;;;;;;;7.72;51.21;101172.56;5021805;28;20092;-76
2021/12/19 05:30:23;;;;;;;1.52;1.33;;;;;;;7.57;52.70;101173.81;5005332;28;20029;-77
2021/12/19 05:32:51;;;;;;;1.80;1.65;;;;;;;7.59;52.09;101177.06;5005846;28;20037;-77
2021/12/19 05:35:25;;;;;;;1.20;1.10;;;;;;;7.56;52.28;101172.16;5006106;28;20057;-76
2021/12/19 05:46:29;;;;;;;1.70;1.60;;;;;;;7.57;52.64;101163.56;5022448;28;20500;-76
2021/12/19 05:48:58;;;;;;;3.90;1.40;;;;;;;7.42;52.55;101171.44;5002820;28;20037;-76
2021/12/19 05:51:30;;;;;;;2.85;1.83;;;;;;;7.50;53.34;101176.19;5001694;28;20029;-76
2021/12/19 05:54:10;;;;;;;2.05;1.15;;;;;;;7.57;53.01;101179.34;5001476;28;20036;-76
2021/12/19 05:56:39;;;;;;;6.38;2.40;;;;;;;7.56;52.75;101169.38;5001167;28;20072;-76
2021/12/19 05:59:28;;;;;;;5.53;2.92;;;;;;;7.26;53.04;101171.03;5000239;28;20029;-76
2021/12/19 06:01:56;;;;;;;3.80;2.42;;;;;;;7.02;53.57;101176.88;5003077;28;20030;-76
2021/12/19 06:04:29;;;;;;;3.13;2.83;;;;;;;6.86;54.88;101175.63;5003550;28;20037;-76
2021/12/19 06:06:58;;;;;;;5.07;3.63;;;;;;;6.71;54.60;101174.03;5004716;28;20117;-76
2021/12/19 06:09:29;;;;;;;5.82;3.80;;;;;;;6.54;55.40;101177.47;5003945;28;20030;-76
2021/12/19 06:11:54;;;;;;;7.32;3.67;;;;;;;6.59;55.25;101171.00;5021529;28;20033;-76
2021/12/19 06:14:31;;;;;;;6.20;3.00;;;;;;;6.62;55.37;101173.97;5004211;28;20022;-77
2021/12/19 06:17:01;;;;;;;4.63;3.17;;;;;;;6.62;56.23;101178.69;5004716;28;20061;-77
2021/12/19 06:19:29;;;;;;;4.70;3.03;;;;;;;6.75;55.00;101175.88;5017443;28;20056;-77
2021/12/19 06:21:55;;;;;;;6.85;3.03;;;;;;;6.86;54.70;101167.34;4983665;28;20037;-76
2021/12/19 06:24:21;;;;;;;15.05;9.00;;;;;;;6.93;54.39;101174.06;4998340;28;20036;-76
2021/12/19 06:26:49;;;;;;;5.65;2.95;;;;;;;6.93;54.48;101178.78;4983982;28;20026;-77
2021/12/19 06:29:46;;;;;;;9.18;3.58;;;;;;;6.81;54.93;101171.84;4983907;28;20439;-77
2021/12/19 06:32:14;;;;;;;5.63;3.95;;;;;;;6.87;55.11;101171.72;4974375;28;20085;-76
2021/12/19 06:34:40;;;;;;;4.68;3.08;;;;;;;6.91;54.72;101168.03;4980454;28;20030;-77
2021/12/19 06:37:09;;;;;;;6.35;5.25;;;;;;;7.03;54.42;101171.06;4996318;28;20377;-76
2021/12/19 06:39:35;;;;;;;7.63;4.35;;;;;;;7.33;54.06;101169.44;4980932;28;20034;-76
2021/12/19 06:42:01;;;;;;;5.97;4.55;;;;;;;7.66;53.22;101171.88;4980771;28;20468;-76
2021/12/19 06:44:27;;;;;;;6.78;5.57;;;;;;;7.83;53.19;101166.44;4981212;28;20022;-76
2021/12/19 06:46:55;;;;;;;10.75;7.07;;;;;;;7.74;53.91;101162.81;4998497;28;20037;-76
2021/12/19 06:49:36;;;;;;;9.50;5.78;;;;;;;7.47;54.02;101169.38;4981844;28;20037;-76
2021/12/19 06:52:01;;;;;;;5.40;4.90;;;;;;;7.20;54.54;101164.00;4998284;28;20034;-77
2021/12/19 06:54:27;;;;;;;5.68;4.68;;;;;;;7.20;55.27;101170.34;4998889;28;20115;-76
2021/12/19 06:56:55;;;;;;;5.82;4.35;;;;;;;7.12;56.07;101160.03;4999525;28;20434;-76
2021/12/19 06:59:23;;;;;;;6.28;3.72;;;;;;;7.93;53.37;101164.47;4983160;28;20034;-76
2021/12/19 07:01:52;;;;;;;6.18;4.38;;;;;;;8.66;51.97;101166.44;4998676;28;20031;-76
2021/12/19 07:04:24;;;;;;;4.97;4.07;;;;;;;9.42;50.79;101157.50;4982715;28;20033;-75
2021/12/19 07:06:53;;;;;;;5.50;3.25;;;;;;;9.96;48.85;101155.03;4998132;28;20038;-76
2021/12/19 07:09:21;;;;;;;6.25;4.18;;;;;;;10.36;47.45;101164.97;4983113;28;20041;-76
2021/12/19 07:11:49;;;;;;;6.32;4.30;;;;;;;10.67;46.25;101154.25;5000886;28;20041;-76
2021/12/19 07:14:15;;;;;;;9.88;4.18;;;;;;;11.35;44.96;101162.31;4983359;28;20511;-76
2021/12/19 07:16:50;;;;;;;5.13;4.00;;;;;;;11.87;43.39;101147.75;4983691;28;20038;-76
2021/12/19 07:19:15;;;;;;;4.28;3.75;;;;;;;12.19;41.49;101142.38;5001003;28;20065;-76
2021/12/19 07:21:44;;;;;;;5.70;3.63;;;;;;;12.76;41.98;101142.16;4984130;28;20030;-76
2021/12/19 07:24:21;;;;;;;4.68;3.30;;;;;;;13.15;40.58;101141.63;5002937;28;20027;-76
2021/12/19 07:26:49;;;;;;;6.47;4.25;;;;;;;13.43;40.68;101150.03;5000164;28;20061;-76
2021/12/19 07:29:15;;;;;;;6.45;4.60;;;;;;;13.72;39.90;101118.00;4981900;28;20038;-76
2021/12/19 07:31:43;;;;;;;7.72;4.68;;;;;;;13.97;38.80;101150.19;4980764;28;20481;-76
2021/12/19 07:34:09;;;;;;;10.63;4.30;;;;;;;13.72;39.26;101149.56;4998813;28;20544;-76
2021/12/19 07:36:52;;;;;;;10.52;4.75;;;;;;;13.84;39.42;101145.88;4979397;28;20035;-75
2021/12/19 07:42:24;;;;;;;4.38;3.42;;;;;;;12.97;40.08;101158.72;5001365;28;20062;-75
2021/12/19 07:44:50;;;;;;;5.78;3.38;;;;;;;13.59;38.02;101154.44;4984979;28;20072;-75
2021/12/19 07:47:18;;;;;;;3.45;3.10;;;;;;;13.13;38.71;101149.56;4985502;28;20480;-76
2021/12/19 07:50:03;;;;;;;4.32;3.13;;;;;;;13.17;37.90;101153.28;4986389;28;20030;-76
2021/12/19 07:52:31;;;;;;;3.42;2.70;;;;;;;13.58;38.72;101155.63;5003707;28;20057;-76
2021/12/19 08:02:12;;;;;;;2.95;2.08;;;;;;;14.41;35.51;101144.44;4946104;28;20039;-76
2021/12/19 08:04:40;;;;;;;4.00;2.85;;;;;;;14.38;35.35;101143.19;4929393;29;20032;-78
2021/12/19 08:07:11;;;;;;;3.78;3.20;;;;;;;14.86;35.80;101152.25;4928746;29;20103;-79
2021/12/19 08:12:27;;;;;;;2.78;2.38;;;;;;;15.79;34.22;101154.03;5000880;28;20053;-80
2021/12/19 08:14:56;;;;;;;3.20;2.72;;;;;;;15.88;35.05;101154.59;4981599;28;20098;-76
2021/12/19 08:17:21;;;;;;;4.65;2.40;;;;;;;16.18;34.98;101154.66;4980125;28;20034;-75
2021/12/19 08:19:50;;;;;;;2.60;2.40;;;;;;;16.34;33.72;101145.25;4986963;28;20458;-75
2021/12/19 08:22:20;;;;;;;3.53;2.10;;;;;;;16.43;34.73;101142.97;4999282;28;20029;-76
2021/12/19 08:27:37;;;;;;;3.30;1.90;;;;;;;16.54;32.08;101135.50;5016887;28;20083;-77
2021/12/19 08:30:09;;;;;;;2.75;1.90;;;;;;;16.62;30.38;101130.78;5017121;28;20033;-76
2021/12/19 08:32:38;;;;;;;2.67;1.95;;;;;;;16.88;31.89;101138.38;4999776;28;20030;-76
2021/12/19 08:35:06;;;;;;;2.45;2.13;;;;;;;17.13;31.79;101136.69;5017181;28;20037;-76
2021/12/19 08:37:34;;;;;;;3.50;2.22;;;;;;;17.06;31.47;101144.22;4999008;28;20032;-76
2021/12/19 08:40:11;;;;;;;3.38;2.75;;;;;;;17.19;31.83;101131.50;5016332;28;20112;-75
2021/12/19 08:42:36;;;;;;;5.18;2.60;;;;;;;17.44;31.74;101126.16;4999378;28;20054;-76
2021/12/19 08:45:06;;;;;;;3.67;3.38;;;;;;;16.87;31.22;101134.75;4999059;28;20530;-76
2021/12/19 08:47:37;;;;;;;5.50;3.85;;;;;;;17.01;31.02;101114.47;5016448;28;20030;-73
2021/12/19 08:50:07;;;;;;;4.90;3.35;;;;;;;16.98;31.03;101132.06;5015942;28;20029;-73
2021/12/19 08:52:42;;;;;;;4.82;3.17;;;;;;;16.74;31.96;101134.22;4997450;28;20091;-73
2021/12/19 08:55:09;;;;;;;4.78;2.80;;;;;;;16.84;30.68;101135.53;4998523;28;20026;-76
2021/12/19 08:57:38;;;;;;;9.30;6.55;;;;;;;16.28;31.93;101129.91;5016263;28;20053;-73
2021/12/19 09:00:14;;;;;;;20.23;18.15;;;;;;;15.84;32.53;101130.44;4998678;28;20065;-76
2021/12/19 09:02:44;;;;;;;9.02;8.02;;;;;;;15.31;33.71;101133.91;5016169;28;20021;-76
2021/12/19 09:05:09;;;;;;;3.72;2.97;;;;;;;15.59;33.73;101144.81;4998820;28;20038;-76
2021/12/19 09:07:38;;;;;;;2.35;2.15;;;;;;;15.94;32.69;101133.44;4998941;28;20481;-76
2021/12/19 09:10:07;;;;;;;5.10;2.85;;;;;;;15.71;32.65;101127.84;4998431;28;20030;-76
2021/12/19 09:12:36;;;;;;;4.20;3.03;;;;;;;15.39;33.60;101123.63;5015612;28;20061;-76
2021/12/19 09:15:06;;;;;;;4.47;3.70;;;;;;;15.33;33.70;101113.91;4998259;28;20030;-76
2021/12/19 09:17:34;;;;;;;4.32;3.92;;;;;;;15.09;33.57;101087.84;4998092;28;20026;-75
2021/12/19 09:20:00;;;;;;;3.40;3.10;;;;;;;14.70;35.13;101111.47;4998773;28;20488;-76
2021/12/19 09:22:25;;;;;;;7.07;4.97;;;;;;;14.41;35.06;101111.63;5000525;28;20120;-74
2021/12/19 09:25:45;;;;;;;4.88;3.25;;;;;;;14.63;35.62;101110.13;4999857;28;20088;-74
2021/12/19 09:28:33;;;;;;;7.75;3.83;;;;;;;14.49;35.89;101106.22;5016601;28;20511;-76
2021/12/19 09:31:16;;;;;;;5.47;4.60;;;;;;;14.97;36.16;101102.03;5001081;28;20037;-76
2021/12/19 09:33:48;;;;;;;8.65;5.68;;;;;;;14.78;35.96;101097.25;5001599;28;20091;-76
2021/12/19 09:36:20;;;;;;;7.78;5.85;;;;;;;15.59;35.33;101080.31;5021445;28;20044;-75
2021/12/19 09:38:52;;;;;;;5.03;3.10;;;;;;;15.03;34.39;101089.34;4999710;28;20177;-75
2021/12/19 09:42:13;;;;;;;5.03;4.53;;;;;;;14.95;35.18;101084.75;5000290;28;20030;-75
2021/12/19 09:44:40;;;;;;;4.15;3.33;;;;;;;15.32;34.38;101078.63;5017264;28;20068;-76
2021/12/19 09:50:34;;;;;;;4.10;3.03;;;;;;;16.58;32.42;101057.72;5014649;28;20080;-75
2021/12/19 09:53:03;;;;;;;6.25;3.50;;;;;;;16.18;32.08;101064.00;4997437;28;20029;-75
2021/12/19 09:55:29;;;;;;;3.20;2.90;;;;;;;16.75;32.42;101059.94;4997303;28;20034;-75
2021/12/19 09:57:59;;;;;;;5.72;2.70;;;;;;;16.01;32.00;101026.06;4997013;28;20084;-75
2021/12/19 10:00:30;;;;;;;4.68;3.72;;;;;;;16.30;31.93;101046.09;4996916;28;20040;-75
2021/12/19 10:02:59;;;;;;;4.00;3.60;;;;;;;16.11;32.40;101049.88;4997737;28;20117;-75
2021/12/19 10:05:26;;;;;;;9.15;4.20;;;;;;;16.32;31.39;101040.94;4997089;28;20116;-75
2021/12/19 10:07:54;;;;;;;4.78;3.90;;;;;;;16.53;31.86;101044.00;5014711;28;20030;-76
2021/12/19 10:10:34;;;;;;;5.18;3.80;;;;;;;16.66;31.51;101039.72;4997092;28;20083;-73
2021/12/19 10:13:02;;;;;;;3.70;3.38;;;;;;;17.27;31.32;101027.16;4997481;28;20029;-75
2021/12/19 10:15:38;;;;;;;4.35;3.08;;;;;;;17.62;30.98;101023.00;4997593;28;20089;-75
2021/12/19 10:18:03;;;;;;;10.80;6.13;;;;;;;16.91;30.62;101036.44;5014554;28;20022;-73
2021/12/19 10:20:44;;;;;;;4.60;3.60;;;;;;;16.97;30.64;101032.88;4996709;28;20169;-73
2021/12/19 10:23:16;;;;;;;5.10;3.53;;;;;;;17.38;30.56;101023.63;4997276;28;20046;-73
2021/12/19 10:25:43;;;;;;;5.75;4.57;;;;;;;16.81;30.93;101031.50;5013500;28;20029;-73
2021/12/19 10:28:10;;;;;;;5.22;4.22;;;;;;;17.03;30.69;101014.47;4996878;28;20095;-74
2021/12/19 10:30:43;;;;;;;5.43;4.80;;;;;;;15.87;32.57;101023.88;5014283;28;20048;-74
2021/12/19 10:33:12;;;;;;;5.87;3.73;;;;;;;16.42;31.59;101018.59;5014423;28;20054;-75
2021/12/19 10:35:50;;;;;;;5.82;4.00;;;;;;;16.61;31.18;101014.78;4996714;28;20472;-75
2021/12/19 10:38:24;;;;;;;6.32;4.15;;;;;;;17.12;30.10;101011.34;4996306;28;20103;-76
2021/12/19 10:41:14;;;;;;;4.18;3.35;;;;;;;17.48;30.32;101006.03;4997182;28;20022;-75
2021/12/19 10:43:59;;;;;;;6.20;3.67;;;;;;;16.80;30.31;101004.59;4996505;28;20030;-75
2021/12/19 10:46:29;;;;;;;7.03;3.63;;;;;;;16.35;30.65;101006.44;4997044;28;20368;-75
2021/12/19 10:49:00;;;;;;;5.57;3.92;;;;;;;16.49;31.56;100998.19;4997046;28;20038;-75
2021/12/19 10:51:29;;;;;;;5.65;4.25;;;;;;;15.99;31.25;100983.56;4999220;28;20037;-75
2021/12/19 10:54:00;;;;;;;4.60;3.80;;;;;;;16.55;31.63;100979.81;4997496;28;20033;-75
2021/12/19 10:56:36;;;;;;;7.63;5.55;;;;;;;16.75;31.16;100981.28;4996051;28;20028;-75
2021/12/19 10:59:10;;;;;;;7.90;5.18;;;;;;;15.97;33.39;100988.72;4997985;28;20033;-76
2021/12/19 11:01:41;;;;;;;18.13;11.88;;;;;;;16.06;33.04;100943.53;5019431;28;20033;-75
2021/12/19 11:04:18;;;;;;;12.93;7.70;;;;;;;15.85;33.57;100972.13;5019034;28;20372;-75
2021/12/19 11:06:49;;;;;;;8.38;6.70;;;;;;;15.55;34.29;100944.78;4999896;28;20083;-75
2021/12/19 11:09:59;;;;;;;11.90;8.45;;;;;;;15.44;34.27;100969.88;4998487;28;20117;-75
2021/12/19 11:12:27;;;;;;;8.63;7.03;;;;;;;15.57;32.66;100962.06;4999798;28;20057;-75
2021/12/19 11:14:57;;;;;;;12.50;8.25;;;;;;;15.59;32.73;100958.88;5019929;28;20044;-76
2021/12/19 11:17:47;;;;;;;21.45;17.15;;;;;;;15.85;32.57;100952.47;5002080;28;20492;-76
2021/12/19 11:20:13;;;;;;;12.98;8.70;;;;;;;16.29;32.43;100946.22;4994789;28;20050;-75
2021/12/19 11:22:50;;;;;;;7.25;4.97;;;;;;;16.40;31.58;100933.09;4992794;28;20145;-75
2021/12/19 11:25:21;;;;;;;9.82;8.32;;;;;;;16.42;32.79;100941.97;4992792;28;20548;-75
2021/12/19 11:27:50;;;;;;;13.95;11.05;;;;;;;16.40;33.42;100939.50;4992322;28;20026;-75
2021/12/19 11:30:26;;;;;;;15.10;9.75;;;;;;;15.64;35.40;100934.16;4993032;28;20102;-75
2021/12/19 11:33:36;;;;;;;13.98;9.88;;;;;;;15.27;35.96;100933.16;4992945;28;20034;-76
2021/12/19 11:36:02;;;;;;;12.50;8.63;;;;;;;14.77;37.08;100930.34;4967532;28;20038;-76
2021/12/19 11:38:55;;;;;;;13.60;8.63;;;;;;;14.66;36.63;100927.34;4979806;28;20030;-75
2021/12/19 11:41:27;;;;;;;12.75;8.30;;;;;;;14.91;36.43;100915.75;4996155;28;20350;-75
2021/12/19 11:43:58;;;;;;;10.50;7.63;;;;;;;15.18;36.29;100916.63;4994048;28;20030;-78
2021/12/19 11:46:44;;;;;;;9.70;7.50;;;;;;;15.76;35.91;100904.25;4993874;28;20049;-76
2021/12/19 11:49:20;;;;;;;9.70;8.15;;;;;;;15.46;35.22;100897.41;4992580;28;20501;-76
2021/12/19 11:52:08;;;;;;;14.50;9.02;;;;;;;15.22;35.14;100905.44;4992556;28;20034;-76
2021/12/19 11:54:39;;;;;;;11.48;7.85;;;;;;;14.96;35.38;100892.22;4991837;28;20481;-76
2021/12/19 11:57:10;;;;;;;9.63;7.07;;;;;;;15.28;35.95;100898.31;4992480;28;20027;-76
2021/12/19 11:59:40;;;;;;;9.10;8.20;;;;;;;15.53;35.50;100887.47;4993184;28;20042;-74
2021/12/19 12:02:25;;;;;;;10.63;7.95;;;;;;;15.88;34.69;100884.38;4993162;28;20037;-76
2021/12/19 12:05:12;;;;;;;9.05;7.18;;;;;;;15.97;35.15;100885.69;4994244;28;20034;-75
2021/12/19 12:08:10;;;;;;;10.20;6.57;;;;;;;16.10;34.32;100866.59;4992917;28;20034;-75
2021/12/19 12:10:51;;;;;;;9.68;6.75;;;;;;;16.26;34.12;100868.38;4994575;28;20469;-76
2021/12/19 12:13:24;;;;;;;9.13;6.70;;;;;;;16.13;34.77;100865.00;4994267;28;20031;-75
2021/12/19 12:16:12;;;;;;;6.50;5.60;;;;;;;15.98;34.98;100836.00;4993793;28;20035;-75
2021/12/19 12:18:44;;;;;;;9.88;5.53;;;;;;;15.73;35.02;100865.75;4992268;28;20034;-75
2021/12/19 12:21:23;;;;;;;6.60;5.38;;;;;;;15.88;35.26;100853.50;5011575;28;20053;-75
2021/12/19 12:24:12;;;;;;;7.15;5.22;;;;;;;15.97;34.95;100856.81;4995510;28;20022;-75
2021/12/19 12:27:02;;;;;;;10.70;5.85;;;;;;;15.47;35.67;100856.16;5013767;28;20419;-75
2021/12/19 12:29:28;;;;;;;6.40;5.25;;;;;;;14.75;36.88;100843.06;4999141;28;20061;-75
2021/12/19 12:32:00;;;;;;;8.32;5.82;;;;;;;15.05;36.75;100843.13;5001522;28;20041;-76
2021/12/19 12:34:28;;;;;;;5.57;4.78;;;;;;;14.83;36.37;100842.00;5001240;28;20026;-76
2021/12/19 12:36:56;;;;;;;5.68;3.90;;;;;;;15.29;35.93;100841.09;5000532;28;20037;-75
2021/12/19 12:39:30;;;;;;;5.65;4.57;;;;;;;15.38;36.21;100834.00;5016639;28;20029;-75
2021/12/19 12:42:04;;;;;;;9.40;5.05;;;;;;;15.61;35.22;100831.13;4998993;28;20033;-76
2021/12/19 12:44:29;;;;;;;;;;;;;;;15.60;35.03;100832.28;4999345;28;20030;-76
2021/12/19 12:46:59;;;;;;;4.75;3.65;;;;;;;15.84;35.15;100833.00;4999379;28;19967;-76
2021/12/19 12:49:34;;;;;;;5.45;4.30;;;;;;;15.91;34.86;100819.06;4999485;28;20026;-76
2021/12/19 12:52:06;;;;;;;7.82;4.00;;;;;;;15.31;34.81;100816.28;4999396;28;20026;-76
2021/12/19 12:54:36;;;;;;;5.13;3.42;;;;;;;15.32;35.02;100815.09;5018936;28;20046;-77
2021/12/19 13:00:34;;;;;;;4.05;3.63;;;;;;;15.02;35.40;100801.88;5017114;28;20037;-76
2021/12/19 13:03:23;;;;;;;4.97;4.45;;;;;;;15.10;35.48;100806.38;4998736;28;20022;-75
2021/12/19 13:05:51;;;;;;;6.40;4.20;;;;;;;14.70;35.30;100801.38;5016090;28;20034;-74
2021/12/19 13:08:20;;;;;;;8.23;4.63;;;;;;;14.45;36.09;100795.34;4998593;28;20050;-76
2021/12/19 13:10:52;;;;;;;4.50;3.38;;;;;;;14.56;35.55;100790.75;4999317;28;20415;-76
2021/12/19 13:13:25;;;;;;;6.43;4.40;;;;;;;14.48;35.41;100789.00;4998893;28;20468;-76
2021/12/19 13:16:04;;;;;;;5.15;4.10;;;;;;;14.18;36.41;100785.28;5016059;28;20030;-76
2021/12/19 13:18:29;;;;;;;4.50;3.17;;;;;;;14.24;36.19;100772.59;4998512;28;20025;-75
2021/12/19 13:21:03;;;;;;;5.07;3.50;;;;;;;14.67;35.59;100780.53;4997848;28;20493;-75
2021/12/19 13:23:30;;;;;;;3.80;3.40;;;;;;;14.64;35.43;100767.25;4998376;28;20096;-76
2021/12/19 13:26:01;;;;;;;7.35;4.57;;;;;;;14.79;35.16;100768.28;4998145;28;20477;-76
2021/12/19 13:28:27;;;;;;;7.50;4.43;;;;;;;14.87;34.91;100763.63;4998737;28;20018;-77